Time;durP1;ratioP1;P1;durP2;ratioP2;P2;SDS_P1;SDS_P2;PMS_P1;PMS_P2;Temp;Humidity;BMP_temperature;BMP_pressure;BME280_temperature;BME280_humidity;BME280_pressure;Samples;Min_cycle;Max_cycle;Signal;HPM_P1;HPM_P2
2022/04/24 00:00:27;;;;;;;5.75;3.00;;;15.00;77.20;;;;;;5007458;28;20026;-75
2022/04/24 00:02:53;;;;;;;5.60;3.00;;;15.00;77.20;;;;;;5008434;28;20053;-75
2022/04/24 00:05:18;;;;;;;6.53;2.97;;;15.00;77.20;;;;;;5008716;28;20482;-74
2022/04/24 00:07:44;;;;;;;6.88;3.10;;;15.00;77.20;;;;;;5006997;28;20029;-75
2022/04/24 00:10:10;;;;;;;5.35;3.10;;;15.00;77.30;;;;;;5007469;28;20026;-75
2022/04/24 00:12:36;;;;;;;6.13;3.30;;;15.00;77.30;;;;;;5008074;28;20025;-75
2022/04/24 00:15:01;;;;;;;5.38;3.10;;;15.00;77.30;;;;;;5007552;28;20032;-75
2022/04/24 00:17:27;;;;;;;5.45;3.10;;;15.00;77.30;;;;;;5007498;28;20030;-74
2022/04/24 00:19:52;;;;;;;6.13;3.60;;;15.00;77.40;;;;;;5008372;28;20038;-75
2022/04/24 00:22:18;;;;;;;5.68;3.22;;;15.00;77.60;;;;;;5007021;28;20022;-75
2022/04/24 00:24:43;;;;;;;5.45;2.92;;;15.00;77.40;;;;;;5006660;28;20025;-74
2022/04/24 00:27:09;;;;;;;7.43;3.30;;;15.00;77.40;;;;;;5008142;28;20044;-75
2022/04/24 00:29:35;;;;;;;6.75;3.05;;;15.00;77.40;;;;;;5008153;28;20061;-75
2022/04/24 00:32:01;;;;;;;5.95;3.00;;;15.00;77.40;;;;;;5006993;28;20125;-75
2022/04/24 00:34:27;;;;;;;4.63;2.78;;;15.00;77.50;;;;;;5007837;28;20113;-75
2022/04/24 00:36:52;;;;;;;5.28;3.03;;;14.90;77.60;;;;;;5006932;28;20030;-74
2022/04/24 00:39:17;;;;;;;6.45;3.15;;;15.00;77.60;;;;;;5007865;28;20255;-74
2022/04/24 00:41:45;;;;;;;6.40;3.20;;;15.00;77.40;;;;;;5006875;28;20026;-75
2022/04/24 00:44:10;;;;;;;5.93;3.20;;;14.90;77.40;;;;;;5006210;28;20493;-74
2022/04/24 00:46:46;;;;;;;6.18;3.33;;;15.00;77.40;;;;;;5006492;28;20034;-74
2022/04/24 00:49:12;;;;;;;6.00;3.10;;;15.00;77.50;;;;;;5006234;28;20030;-75
2022/04/24 00:51:39;;;;;;;6.53;3.22;;;15.00;77.40;;;;;;5006959;28;20022;-75
2022/04/24 00:54:07;;;;;;;6.82;3.20;;;15.00;77.40;;;;;;5006181;28;20037;-74
2022/04/24 00:56:34;;;;;;;6.25;3.15;;;14.90;77.30;;;;;;5007774;28;20032;-74
2022/04/24 00:59:02;;;;;;;7.57;4.28;;;15.00;77.40;;;;;;5007723;28;20040;-75
2022/04/24 01:01:28;;;;;;;6.93;3.90;;;15.00;77.30;;;;;;5006230;28;20030;-75
2022/04/24 01:03:55;;;;;;;6.65;4.00;;;15.00;77.30;;;;;;5006111;28;20026;-75
2022/04/24 01:06:21;;;;;;;5.43;3.30;;;15.00;77.30;;;;;;5007507;28;20030;-76
2022/04/24 01:08:46;;;;;;;5.80;3.13;;;15.00;77.30;;;;;;5007314;28;20489;-75
2022/04/24 01:11:12;;;;;;;5.88;3.58;;;15.00;77.50;;;;;;5006079;28;20080;-75
2022/04/24 01:13:37;;;;;;;5.85;3.28;;;15.00;77.30;;;;;;5007255;28;20581;-75
2022/04/24 01:16:03;;;;;;;6.20;3.05;;;15.00;77.20;;;;;;5005762;28;20030;-74
2022/04/24 01:18:30;;;;;;;5.60;3.28;;;15.00;77.20;;;;;;5006180;28;20068;-75
2022/04/24 01:20:56;;;;;;;5.70;3.28;;;15.10;77.10;;;;;;5005976;28;20405;-75
2022/04/24 01:23:21;;;;;;;5.82;3.28;;;15.00;76.90;;;;;;5005866;28;20032;-75
2022/04/24 01:25:46;;;;;;;4.93;3.08;;;15.10;76.90;;;;;;5005788;28;20112;-74
2022/04/24 01:28:12;;;;;;;5.65;3.10;;;15.10;76.80;;;;;;5007475;28;20028;-75
2022/04/24 01:30:38;;;;;;;5.15;3.03;;;15.10;76.60;;;;;;5005505;28;20046;-76
2022/04/24 01:33:03;;;;;;;5.97;2.90;;;15.20;76.50;;;;;;5006879;28;20045;-75
2022/04/24 01:35:32;;;;;;;5.32;2.95;;;15.20;76.50;;;;;;5005864;28;20026;-77
2022/04/24 01:37:58;;;;;;;5.78;2.80;;;15.20;76.50;;;;;;5005883;28;20064;-75
2022/04/24 01:40:24;;;;;;;7.05;3.22;;;15.20;76.40;;;;;;5005470;28;20034;-74
2022/04/24 01:42:50;;;;;;;5.97;3.10;;;15.20;76.40;;;;;;5006956;28;20026;-76
2022/04/24 01:45:16;;;;;;;6.50;3.00;;;15.10;76.30;;;;;;5006789;28;20036;-74
2022/04/24 01:47:41;;;;;;;5.18;2.95;;;15.20;76.40;;;;;;5005522;28;20022;-75
2022/04/24 01:50:07;;;;;;;5.30;3.25;;;15.20;76.40;;;;;;5005055;28;20555;-75
2022/04/24 01:52:32;;;;;;;4.60;2.80;;;15.20;76.50;;;;;;5006553;28;20036;-75
2022/04/24 01:54:58;;;;;;;4.75;2.90;;;15.10;76.50;;;;;;5007017;28;20040;-75
2022/04/24 01:57:23;;;;;;;5.75;2.83;;;15.10;76.70;;;;;;5006822;28;20030;-76
2022/04/24 01:59:49;;;;;;;7.20;3.60;;;15.00;76.80;;;;;;5005761;28;20030;-75
2022/04/24 02:02:14;;;;;;;5.45;3.10;;;15.00;76.90;;;;;;5005502;28;20129;-75
2022/04/24 02:04:40;;;;;;;6.07;2.88;;;15.00;77.00;;;;;;5005465;28;20072;-75
2022/04/24 02:07:06;;;;;;;5.43;2.80;;;15.00;77.10;;;;;;5004980;28;20037;-75
2022/04/24 02:09:33;;;;;;;6.10;3.20;;;15.00;77.20;;;;;;5002851;28;20408;-76
2022/04/24 02:11:59;;;;;;;6.40;3.10;;;15.00;77.40;;;;;;5005371;28;20030;-75
2022/04/24 02:14:24;;;;;;;5.15;3.13;;;15.00;77.40;;;;;;5006702;28;20037;-75
2022/04/24 02:16:50;;;;;;;5.15;3.00;;;14.90;77.40;;;;;;5005439;28;20030;-74
2022/04/24 02:19:15;;;;;;;5.38;2.97;;;14.90;77.40;;;;;;5005585;28;20030;-75
2022/04/24 02:21:41;;;;;;;4.90;2.85;;;14.90;77.40;;;;;;5005410;28;20030;-75
2022/04/24 02:24:07;;;;;;;5.28;3.10;;;14.90;77.50;;;;;;5006528;28;20041;-75
2022/04/24 02:26:32;;;;;;;4.90;2.97;;;14.90;77.50;;;;;;5006711;28;20173;-74
2022/04/24 02:28:58;;;;;;;5.30;2.92;;;14.90;77.50;;;;;;5005576;28;20026;-75
2022/04/24 02:31:23;;;;;;;4.47;2.90;;;14.90;77.60;;;;;;5006463;28;20026;-74
2022/04/24 02:33:49;;;;;;;5.63;3.10;;;14.90;77.50;;;;;;5005226;28;20506;-75
2022/04/24 02:36:15;;;;;;;6.05;3.10;;;14.90;77.60;;;;;;5006462;28;20048;-75
2022/04/24 02:38:41;;;;;;;5.55;2.95;;;14.90;77.50;;;;;;5006408;28;20022;-76
2022/04/24 02:41:06;;;;;;;6.38;3.13;;;14.90;77.60;;;;;;5006639;28;20030;-75
2022/04/24 02:43:32;;;;;;;4.55;2.90;;;14.90;77.60;;;;;;5009954;28;20501;-75
2022/04/24 02:45:57;;;;;;;5.40;2.97;;;14.90;77.60;;;;;;5010467;28;20029;-77
2022/04/24 02:48:26;;;;;;;5.07;3.17;;;14.90;77.60;;;;;;5008756;28;20018;-75
2022/04/24 02:50:52;;;;;;;5.32;2.97;;;14.90;77.60;;;;;;5009898;28;20108;-75
2022/04/24 02:53:17;;;;;;;5.40;3.00;;;14.90;77.60;;;;;;5008537;28;20180;-75
2022/04/24 02:55:42;;;;;;;4.70;2.90;;;14.90;77.60;;;;;;5010187;28;20034;-75
2022/04/24 02:58:08;;;;;;;6.28;3.17;;;14.90;77.60;;;;;;5009643;28;20505;-75
2022/04/24 03:00:42;;;;;;;4.75;2.88;;;14.90;77.60;;;;;;5009145;28;20046;-75
2022/04/24 03:03:08;;;;;;;4.45;2.80;;;14.90;77.70;;;;;;5008366;28;20099;-74
2022/04/24 03:05:34;;;;;;;5.72;3.08;;;14.90;77.70;;;;;;5008773;28;20485;-75
2022/04/24 03:08:00;;;;;;;4.45;2.72;;;14.90;77.70;;;;;;5007837;28;20192;-74
2022/04/24 03:10:25;;;;;;;5.75;3.00;;;14.90;77.70;;;;;;5008527;28;20105;-75
2022/04/24 03:12:51;;;;;;;5.43;3.08;;;14.90;77.70;;;;;;5008017;28;20029;-74
2022/04/24 03:15:17;;;;;;;5.57;3.38;;;14.90;77.70;;;;;;5008572;28;20026;-75
2022/04/24 03:17:43;;;;;;;5.93;3.28;;;14.90;77.60;;;;;;5009615;28;20041;-75
2022/04/24 03:20:11;;;;;;;5.65;3.70;;;14.90;77.70;;;;;;5008434;28;20121;-76
2022/04/24 03:22:36;;;;;;;6.15;3.90;;;14.90;78.10;;;;;;5007830;28;20034;-74
2022/04/24 03:25:06;;;;;;;5.72;3.35;;;14.90;77.60;;;;;;5009483;28;20044;-75
2022/04/24 03:27:31;;;;;;;6.18;3.70;;;14.90;77.60;;;;;;5009226;28;20517;-76
2022/04/24 03:29:57;;;;;;;5.60;3.33;;;14.90;77.50;;;;;;5008467;28;20069;-76
2022/04/24 03:32:23;;;;;;;5.80;3.60;;;14.90;77.50;;;;;;5008033;28;20117;-75
2022/04/24 03:34:48;;;;;;;6.00;3.80;;;14.90;77.50;;;;;;5009107;28;20116;-76
2022/04/24 03:37:14;;;;;;;5.43;3.10;;;14.90;77.50;;;;;;5007815;28;20022;-77
2022/04/24 03:39:39;;;;;;;4.82;2.90;;;14.90;77.40;;;;;;5008028;28;20026;-75
2022/04/24 03:42:06;;;;;;;5.30;3.08;;;14.90;77.80;;;;;;5007793;28;20041;-73
2022/04/24 03:44:33;;;;;;;4.78;3.15;;;15.00;77.30;;;;;;5007697;28;20054;-75
2022/04/24 03:46:58;;;;;;;5.45;3.15;;;15.00;77.20;;;;;;5007630;28;20025;-75
2022/04/24 03:49:25;;;;;;;5.28;3.13;;;15.00;77.10;;;;;;5007865;28;20793;-75
2022/04/24 03:51:51;;;;;;;5.03;2.90;;;15.00;76.90;;;;;;5007519;28;20029;-76
2022/04/24 03:54:16;;;;;;;5.47;3.15;;;15.00;76.80;;;;;;5008470;28;20687;-75
2022/04/24 03:56:42;;;;;;;5.40;3.20;;;15.00;76.70;;;;;;5009048;28;20104;-74
2022/04/24 03:59:07;;;;;;;4.70;2.90;;;15.00;76.70;;;;;;5008940;28;20485;-75
2022/04/24 04:01:32;;;;;;;5.28;3.03;;;15.00;76.60;;;;;;5007316;28;20036;-75
2022/04/24 04:03:58;;;;;;;4.70;3.08;;;15.10;76.60;;;;;;5008867;28;20048;-75
2022/04/24 04:06:23;;;;;;;6.03;3.03;;;15.10;76.70;;;;;;5008621;28;20026;-75
2022/04/24 04:08:50;;;;;;;4.88;2.90;;;15.10;76.70;;;;;;5005469;28;20026;-75
2022/04/24 04:11:15;;;;;;;5.07;2.95;;;15.10;76.70;;;;;;5007321;28;20405;-76
2022/04/24 04:13:41;;;;;;;4.88;2.80;;;15.10;76.60;;;;;;5007022;28;20044;-75
2022/04/24 04:16:06;;;;;;;5.28;3.10;;;15.00;76.70;;;;;;5007759;28;20033;-74
2022/04/24 04:18:32;;;;;;;4.70;2.90;;;15.00;77.30;;;;;;5008344;28;20427;-73
2022/04/24 04:20:57;;;;;;;4.97;3.00;;;15.00;76.90;;;;;;5008790;28;20049;-74
2022/04/24 04:23:23;;;;;;;5.47;3.47;;;15.00;77.00;;;;;;5005334;28;20056;-74
2022/04/24 04:25:48;;;;;;;4.88;2.90;;;15.00;77.10;;;;;;5008593;28;20029;-74
2022/04/24 04:28:14;;;;;;;5.00;2.88;;;14.90;77.20;;;;;;5007237;28;20113;-74
2022/04/24 04:30:39;;;;;;;5.13;3.03;;;14.90;77.30;;;;;;5008397;28;20409;-74
2022/04/24 04:33:05;;;;;;;4.57;2.80;;;14.90;77.40;;;;;;5008008;28;20026;-74
2022/04/24 04:35:31;;;;;;;5.25;3.00;;;14.90;77.50;;;;;;5006998;28;20026;-75
2022/04/24 04:37:56;;;;;;;5.30;2.83;;;14.90;77.50;;;;;;5007170;28;20022;-74
2022/04/24 04:40:22;;;;;;;4.97;2.80;;;14.80;77.50;;;;;;5006814;28;20038;-74
2022/04/24 04:42:48;;;;;;;5.13;2.70;;;14.90;77.50;;;;;;5006668;28;20034;-74
2022/04/24 04:45:15;;;;;;;5.05;3.00;;;14.90;77.50;;;;;;5006714;28;20032;-74
2022/04/24 04:47:40;;;;;;;5.00;2.90;;;14.90;77.50;;;;;;5007323;28;20557;-74
2022/04/24 04:50:07;;;;;;;5.45;3.20;;;14.90;78.00;;;;;;5006804;28;20145;-75
2022/04/24 04:52:33;;;;;;;4.85;3.00;;;14.90;77.50;;;;;;5007973;28;20028;-74
2022/04/24 04:54:59;;;;;;;5.32;3.05;;;14.90;77.50;;;;;;5006264;28;20116;-75
2022/04/24 04:57:24;;;;;;;6.70;3.53;;;14.80;77.50;;;;;;5006597;28;20030;-74
2022/04/24 04:59:50;;;;;;;5.43;3.30;;;14.90;77.50;;;;;;5007821;28;20107;-75
2022/04/24 05:02:16;;;;;;;4.45;2.80;;;14.90;77.50;;;;;;5006554;28;20032;-73
2022/04/24 05:04:44;;;;;;;5.00;3.20;;;14.90;77.50;;;;;;5005740;28;20018;-74
2022/04/24 05:07:13;;;;;;;4.38;2.88;;;14.80;77.40;;;;;;5005568;28;20378;-73
2022/04/24 05:09:39;;;;;;;4.65;2.90;;;14.90;77.40;;;;;;5007557;28;20022;-74
2022/04/24 05:12:06;;;;;;;4.35;2.75;;;14.80;77.40;;;;;;5006359;28;20029;-74
2022/04/24 05:14:32;;;;;;;4.85;3.08;;;14.90;77.40;;;;;;5007530;28;20040;-74
2022/04/24 05:16:58;;;;;;;4.88;3.28;;;14.90;77.40;;;;;;5006064;28;20485;-74
2022/04/24 05:19:25;;;;;;;4.35;2.70;;;14.90;77.40;;;;;;5007780;28;20149;-74
2022/04/24 05:21:51;;;;;;;5.05;3.00;;;14.80;77.30;;;;;;5005157;28;20404;-74
2022/04/24 05:24:16;;;;;;;4.53;2.75;;;14.80;77.40;;;;;;5006972;28;20132;-74
2022/04/24 05:26:42;;;;;;;4.95;2.83;;;14.80;77.30;;;;;;5002942;28;20111;-74
2022/04/24 05:29:07;;;;;;;5.38;3.20;;;14.90;77.40;;;;;;4998427;28;20033;-75
2022/04/24 05:31:33;;;;;;;4.22;2.80;;;14.90;77.40;;;;;;5006330;28;20022;-74
2022/04/24 05:33:58;;;;;;;4.55;2.75;;;14.90;77.40;;;;;;5006036;28;20026;-74
2022/04/24 05:36:24;;;;;;;5.13;3.00;;;14.80;77.30;;;;;;5005679;28;20029;-74
2022/04/24 05:38:50;;;;;;;5.30;2.88;;;14.90;77.40;;;;;;5005701;28;20045;-74
2022/04/24 05:41:15;;;;;;;5.20;3.30;;;14.90;77.30;;;;;;5006089;28;20030;-74
2022/04/24 05:43:41;;;;;;;4.78;3.00;;;14.90;77.30;;;;;;5006977;28;20037;-74
2022/04/24 05:46:06;;;;;;;4.82;3.10;;;14.90;77.10;;;;;;5005723;28;20496;-74
2022/04/24 05:48:32;;;;;;;5.05;3.03;;;14.90;77.10;;;;;;5002656;28;20101;-75
2022/04/24 05:50:57;;;;;;;6.15;3.53;;;14.90;77.00;;;;;;5017109;28;20029;-75
2022/04/24 05:53:23;;;;;;;4.72;2.67;;;14.90;77.00;;;;;;5014385;28;20026;-75
2022/04/24 05:55:48;;;;;;;4.57;2.90;;;14.90;76.90;;;;;;5007477;28;20438;-74
2022/04/24 05:58:14;;;;;;;4.95;2.83;;;14.90;76.80;;;;;;5007160;28;20597;-74
2022/04/24 06:00:39;;;;;;;5.32;3.10;;;14.90;76.90;;;;;;5006272;28;20084;-77
2022/04/24 06:03:05;;;;;;;5.00;3.00;;;15.00;76.90;;;;;;5007140;28;20084;-73
2022/04/24 06:05:30;;;;;;;5.28;2.88;;;15.00;76.80;;;;;;5007651;28;20022;-74
2022/04/24 06:07:56;;;;;;;5.07;3.10;;;15.00;76.70;;;;;;5007128;28;20029;-75
2022/04/24 06:10:22;;;;;;;4.88;2.95;;;15.00;76.60;;;;;;5007194;28;20397;-74
2022/04/24 06:12:52;;;;;;;5.45;3.10;;;15.00;76.50;;;;;;5006373;28;20404;-74
2022/04/24 06:15:21;;;;;;;4.28;2.63;;;15.10;76.30;;;;;;5005611;28;20520;-74
2022/04/24 06:17:49;;;;;;;4.97;3.05;;;15.10;76.20;;;;;;5011074;28;20026;-74
2022/04/24 06:20:16;;;;;;;4.63;2.92;;;15.10;76.00;;;;;;5010036;28;20420;-74
2022/04/24 06:22:42;;;;;;;4.45;2.97;;;15.20;76.00;;;;;;5011191;28;20707;-74
2022/04/24 06:25:08;;;;;;;4.95;2.88;;;15.20;75.90;;;;;;5010502;28;20026;-74
2022/04/24 06:27:33;;;;;;;5.30;3.20;;;15.20;75.90;;;;;;5009932;28;20024;-74
2022/04/24 06:29:59;;;;;;;4.38;2.65;;;15.20;75.80;;;;;;5010408;28;20515;-74
2022/04/24 06:32:28;;;;;;;4.70;2.80;;;15.20;75.70;;;;;;5011496;28;20095;-75
2022/04/24 06:34:54;;;;;;;5.50;3.15;;;15.30;75.70;;;;;;5009788;28;20030;-74
2022/04/24 06:37:19;;;;;;;4.47;2.83;;;15.20;75.50;;;;;;5011216;28;20092;-73
2022/04/24 06:39:45;;;;;;;5.50;3.20;;;15.30;75.50;;;;;;5011490;28;20064;-74
2022/04/24 06:42:10;;;;;;;3.75;2.53;;;15.30;75.50;;;;;;5010430;28;20034;-75
2022/04/24 06:44:36;;;;;;;5.03;3.00;;;15.30;75.50;;;;;;5011113;28;20041;-73
2022/04/24 06:47:02;;;;;;;4.70;2.90;;;15.30;75.60;;;;;;5010049;28;20025;-74
2022/04/24 06:49:28;;;;;;;4.68;2.83;;;15.30;75.60;;;;;;5011706;28;20022;-74
2022/04/24 06:51:53;;;;;;;4.22;2.67;;;15.30;75.60;;;;;;5011283;28;20037;-72
2022/04/24 06:54:19;;;;;;;5.60;3.00;;;15.30;75.60;;;;;;5009495;28;20064;-74
2022/04/24 06:56:44;;;;;;;5.47;2.88;;;15.30;76.10;;;;;;5009319;28;20030;-75
2022/04/24 06:59:10;;;;;;;5.22;3.00;;;15.30;75.50;;;;;;5009654;28;20030;-74
2022/04/24 07:01:35;;;;;;;4.43;2.70;;;15.40;76.00;;;;;;5007516;28;20037;-74
2022/04/24 07:04:01;;;;;;;4.70;2.80;;;15.30;75.50;;;;;;5010017;28;20032;-73
2022/04/24 07:06:26;;;;;;;4.53;2.75;;;15.30;75.50;;;;;;5010166;28;20037;-75
2022/04/24 07:08:52;;;;;;;4.20;2.75;;;15.30;75.50;;;;;;5010036;28;20033;-73
2022/04/24 07:11:17;;;;;;;4.78;2.90;;;15.30;75.50;;;;;;5008927;28;20030;-74
2022/04/24 07:13:44;;;;;;;4.65;2.70;;;15.30;75.50;;;;;;5009826;28;20030;-72
2022/04/24 07:16:10;;;;;;;4.90;2.95;;;15.30;75.50;;;;;;5010304;28;20389;-74
2022/04/24 07:18:35;;;;;;;4.90;2.92;;;15.30;75.50;;;;;;5008078;28;20032;-74
2022/04/24 07:21:02;;;;;;;4.38;2.65;;;15.30;75.50;;;;;;4989386;28;20035;-77
2022/04/24 07:23:28;;;;;;;5.38;2.95;;;15.30;75.50;;;;;;5003196;28;20385;-77
2022/04/24 07:25:54;;;;;;;4.90;2.95;;;15.30;75.60;;;;;;5008521;28;20490;-75
2022/04/24 07:28:19;;;;;;;4.63;2.85;;;15.30;75.70;;;;;;5008984;28;20032;-75
2022/04/24 07:30:46;;;;;;;5.00;3.00;;;15.30;75.80;;;;;;5008675;28;20044;-74
2022/04/24 07:33:12;;;;;;;5.10;2.78;;;15.30;75.80;;;;;;5009856;28;20137;-72
2022/04/24 07:35:40;;;;;;;4.25;2.75;;;15.20;75.80;;;;;;5008275;28;20140;-74
2022/04/24 07:38:05;;;;;;;4.65;2.90;;;15.20;75.90;;;;;;5008645;28;20104;-73
2022/04/24 07:40:33;;;;;;;4.15;2.70;;;15.20;75.90;;;;;;5006240;28;20158;-74
2022/04/24 07:43:04;;;;;;;4.38;2.53;;;15.20;76.40;;;;;;4993905;28;20093;-74
2022/04/24 07:45:37;;;;;;;4.22;2.42;;;15.30;75.90;;;;;;5020526;28;20105;-74
2022/04/24 07:48:05;;;;;;;4.47;2.83;;;15.20;75.70;;;;;;5020737;28;20034;-75
2022/04/24 07:50:34;;;;;;;4.88;3.00;;;15.30;75.80;;;;;;5006621;28;20088;-74
2022/04/24 07:53:01;;;;;;;5.35;3.05;;;15.30;75.70;;;;;;5008813;28;20461;-73
2022/04/24 07:55:27;;;;;;;5.05;3.03;;;15.30;75.60;;;;;;5008396;28;20030;-75
2022/04/24 07:57:54;;;;;;;5.40;2.90;;;15.30;75.60;;;;;;5009676;28;20037;-74
2022/04/24 08:00:21;;;;;;;4.40;2.90;;;15.30;75.50;;;;;;5008944;28;20045;-75
2022/04/24 08:02:57;;;;;;;5.18;2.92;;;15.30;75.50;;;;;;5009891;28;20037;-75
2022/04/24 08:05:28;;;;;;;4.63;2.90;;;15.30;75.40;;;;;;5009711;28;20571;-74
2022/04/24 08:07:55;;;;;;;5.90;3.10;;;15.40;75.30;;;;;;5008773;28;20030;-74
2022/04/24 08:10:23;;;;;;;4.57;2.90;;;15.30;75.30;;;;;;5009941;28;20030;-74
2022/04/24 08:12:49;;;;;;;7.43;3.05;;;15.40;75.20;;;;;;5010324;28;20040;-75
2022/04/24 08:15:15;;;;;;;5.30;2.90;;;15.40;75.10;;;;;;5008102;28;20030;-74
2022/04/24 08:17:41;;;;;;;4.28;2.72;;;15.50;75.00;;;;;;5008607;28;20030;-76
2022/04/24 08:20:08;;;;;;;5.45;3.10;;;15.50;74.90;;;;;;5008944;28;20052;-78
2022/04/24 08:22:38;;;;;;;4.97;3.13;;;15.50;74.80;;;;;;5007188;28;20030;-74
2022/04/24 08:25:05;;;;;;;3.95;2.63;;;15.60;74.80;;;;;;5009495;28;20494;-74
2022/04/24 08:27:30;;;;;;;4.75;2.95;;;15.60;74.70;;;;;;5009154;28;20530;-74
2022/04/24 08:29:56;;;;;;;5.30;3.35;;;15.60;74.60;;;;;;5007771;28;20042;-74
2022/04/24 08:32:24;;;;;;;4.88;3.20;;;15.60;74.50;;;;;;5002454;28;20087;-74
2022/04/24 08:34:50;;;;;;;4.88;3.10;;;15.70;74.30;;;;;;5003573;28;20125;-74
2022/04/24 08:37:15;;;;;;;5.10;3.15;;;15.80;74.20;;;;;;5008759;28;20985;-73
2022/04/24 08:39:41;;;;;;;5.13;3.22;;;15.80;74.00;;;;;;5004894;28;20048;-74
2022/04/24 08:42:09;;;;;;;5.13;3.20;;;15.80;73.90;;;;;;5007588;28;20520;-74
2022/04/24 08:44:36;;;;;;;5.03;3.10;;;15.90;73.80;;;;;;5006237;28;20022;-76
2022/04/24 08:47:01;;;;;;;5.03;3.15;;;15.90;73.70;;;;;;5006512;28;20559;-78
2022/04/24 08:49:31;;;;;;;5.72;3.30;;;15.90;73.60;;;;;;5007266;28;20034;-74
2022/04/24 08:51:59;;;;;;;5.75;3.30;;;15.90;73.50;;;;;;5004994;28;20104;-73
2022/04/24 08:54:27;;;;;;;4.70;3.08;;;15.90;73.40;;;;;;5008294;28;20022;-74
2022/04/24 08:56:52;;;;;;;5.00;2.83;;;16.00;73.40;;;;;;5007340;28;20309;-78
2022/04/24 08:59:18;;;;;;;5.75;3.72;;;16.00;73.40;;;;;;5008512;28;20681;-77
2022/04/24 09:01:45;;;;;;;5.30;3.47;;;16.00;73.30;;;;;;5008554;28;20037;-74
2022/04/24 09:04:10;;;;;;;5.22;3.38;;;16.00;73.30;;;;;;5006380;28;20054;-75
2022/04/24 09:06:36;;;;;;;5.82;3.30;;;16.00;73.30;;;;;;5006150;28;20356;-74
2022/04/24 09:09:06;;;;;;;4.90;3.13;;;16.00;73.30;;;;;;5001343;28;20026;-75
2022/04/24 09:11:32;;;;;;;5.55;3.28;;;16.00;73.50;;;;;;5006924;28;20474;-74
2022/04/24 09:14:17;;;;;;;5.50;3.20;;;15.90;73.50;;;;;;5007033;28;20029;-74
2022/04/24 09:16:49;;;;;;;5.60;3.50;;;16.00;73.60;;;;;;5006681;28;20025;-74
2022/04/24 09:19:16;;;;;;;5.50;3.72;;;16.00;73.60;;;;;;5008548;28;20025;-74
2022/04/24 09:21:42;;;;;;;5.63;3.60;;;15.90;73.60;;;;;;5006826;28;20034;-73
2022/04/24 09:24:08;;;;;;;5.00;2.90;;;16.00;73.60;;;;;;5006997;28;20109;-75
2022/04/24 09:26:33;;;;;;;5.50;3.10;;;16.00;73.60;;;;;;5006382;28;20121;-71
2022/04/24 09:28:59;;;;;;;6.35;3.83;;;16.00;73.60;;;;;;5006504;28;20064;-72
2022/04/24 09:31:29;;;;;;;5.05;3.28;;;16.00;73.50;;;;;;5007476;28;20385;-76
2022/04/24 09:33:55;;;;;;;5.43;3.55;;;16.10;74.00;;;;;;5007003;28;20053;-74
2022/04/24 09:36:24;;;;;;;5.65;3.47;;;16.10;73.40;;;;;;5022636;28;20595;-74
2022/04/24 09:38:50;;;;;;;5.30;3.42;;;16.10;73.30;;;;;;5006083;28;20022;-74
2022/04/24 09:41:22;;;;;;;5.40;3.10;;;16.10;73.30;;;;;;5006338;28;20531;-74
2022/04/24 09:43:50;;;;;;;5.97;3.50;;;16.10;73.20;;;;;;5005606;28;20462;-73
2022/04/24 09:46:29;;;;;;;5.25;3.42;;;16.20;73.30;;;;;;5007316;28;20026;-74
2022/04/24 09:48:58;;;;;;;5.72;3.40;;;16.20;73.20;;;;;;5008096;28;20025;-74
2022/04/24 09:51:24;;;;;;;5.70;3.60;;;16.20;73.10;;;;;;4986103;28;20121;-74
2022/04/24 09:53:50;;;;;;;6.00;3.60;;;16.20;73.10;;;;;;5020152;28;20453;-74
2022/04/24 09:56:17;;;;;;;5.57;3.45;;;16.20;73.10;;;;;;5027177;28;20056;-74
2022/04/24 09:58:45;;;;;;;6.32;3.80;;;16.20;73.10;;;;;;5012680;28;20524;-74
2022/04/24 10:01:11;;;;;;;5.60;3.38;;;16.20;73.00;;;;;;5007346;28;20573;-74
2022/04/24 10:03:38;;;;;;;5.53;3.50;;;16.20;73.00;;;;;;5007061;28;20102;-74
2022/04/24 10:06:05;;;;;;;6.43;3.75;;;16.20;72.70;;;;;;5007047;28;20080;-75
2022/04/24 10:08:33;;;;;;;6.20;3.45;;;16.20;72.90;;;;;;5007113;28;20026;-74
2022/04/24 10:11:03;;;;;;;4.80;3.08;;;16.20;72.80;;;;;;5006963;28;20084;-74
2022/04/24 10:13:30;;;;;;;5.60;3.65;;;16.20;72.80;;;;;;5006539;28;20044;-73
2022/04/24 10:16:19;;;;;;;6.13;3.72;;;16.20;72.80;;;;;;5006933;28;20029;-74
2022/04/24 10:18:51;;;;;;;5.60;3.50;;;16.20;72.80;;;;;;5006913;28;20761;-75
2022/04/24 10:21:51;;;;;;;5.80;3.25;;;16.30;72.90;;;;;;5007004;28;20433;-74
2022/04/24 10:24:16;;;;;;;5.35;3.25;;;16.20;72.90;;;;;;5006267;28;20026;-74
2022/04/24 10:26:54;;;;;;;7.53;3.60;;;16.30;73.00;;;;;;5005840;28;20385;-73
2022/04/24 10:29:21;;;;;;;7.10;3.80;;;16.30;73.00;;;;;;5007445;28;20038;-73
2022/04/24 10:31:47;;;;;;;8.32;3.85;;;16.30;73.00;;;;;;5006226;28;20061;-75
2022/04/24 10:34:15;;;;;;;15.85;4.97;;;16.30;73.00;;;;;;5003321;28;20030;-73
2022/04/24 10:36:55;;;;;;;17.55;4.72;;;16.30;72.90;;;;;;5005111;28;20033;-74
2022/04/24 10:39:24;;;;;;;21.17;4.35;;;16.30;72.90;;;;;;5001174;28;20037;-74
2022/04/24 10:41:58;;;;;;;10.60;4.25;;;16.30;72.90;;;;;;5001355;28;20057;-72
2022/04/24 10:44:25;;;;;;;14.27;4.60;;;16.30;72.90;;;;;;4984162;28;20037;-73
2022/04/24 10:46:53;;;;;;;16.40;4.43;;;16.30;72.90;;;;;;5001919;28;20171;-74
2022/04/24 10:49:19;;;;;;;13.63;4.28;;;16.30;72.90;;;;;;5007645;28;20072;-73
2022/04/24 10:51:59;;;;;;;14.82;4.28;;;16.30;72.90;;;;;;5005140;28;20471;-74
2022/04/24 10:54:36;;;;;;;13.13;5.10;;;16.30;72.80;;;;;;5005183;28;20018;-73
2022/04/24 10:57:14;;;;;;;14.02;4.20;;;16.30;72.80;;;;;;5003569;28;20718;-75
2022/04/24 10:59:52;;;;;;;12.80;4.55;;;16.30;72.80;;;;;;5006365;28;20532;-73
2022/04/24 11:02:30;;;;;;;12.27;4.03;;;16.30;72.70;;;;;;5006783;28;19909;-74
2022/04/24 11:05:06;;;;;;;16.70;4.65;;;16.40;72.70;;;;;;5008369;28;20060;-73
2022/04/24 11:07:33;;;;;;;13.75;4.22;;;16.40;72.50;;;;;;5009539;28;20553;-73
2022/04/24 11:10:09;;;;;;;9.75;4.30;;;16.40;72.50;;;;;;5008182;28;20022;-78
2022/04/24 11:12:35;;;;;;;12.73;4.20;;;16.40;72.50;;;;;;5008891;28;20022;-73
2022/04/24 11:15:09;;;;;;;8.77;3.70;;;16.40;72.50;;;;;;5009095;28;20050;-74
2022/04/24 11:17:35;;;;;;;10.13;3.95;;;16.40;72.50;;;;;;5009134;28;20350;-74
2022/04/24 11:20:13;;;;;;;14.45;4.55;;;16.40;72.50;;;;;;5010509;28;20034;-74
2022/04/24 11:22:52;;;;;;;11.80;4.47;;;16.40;72.50;;;;;;5009137;28;20390;-73
2022/04/24 11:25:22;;;;;;;10.20;4.40;;;16.40;72.50;;;;;;5009350;28;20022;-74
2022/04/24 11:27:59;;;;;;;9.95;3.85;;;16.40;72.60;;;;;;5008963;28;20490;-75
2022/04/24 11:30:31;;;;;;;9.68;4.20;;;16.30;72.60;;;;;;5009957;28;20121;-72
2022/04/24 11:33:05;;;;;;;11.18;3.83;;;16.30;72.80;;;;;;5010056;28;20545;-73
2022/04/24 11:35:33;;;;;;;10.02;3.60;;;16.30;72.90;;;;;;5008422;28;20030;-71
2022/04/24 11:37:59;;;;;;;8.75;3.60;;;16.30;73.10;;;;;;5008134;28;20604;-73
2022/04/24 11:40:24;;;;;;;9.20;3.80;;;16.20;73.20;;;;;;5010008;28;20116;-74
2022/04/24 11:42:50;;;;;;;8.55;3.90;;;16.20;73.20;;;;;;5008471;28;20137;-72
2022/04/24 11:50:52;;;;;;;8.63;3.42;;;16.20;73.30;;;;;;5008606;28;20029;-73
2022/04/24 11:53:22;;;;;;;8.35;3.90;;;16.20;73.30;;;;;;5009472;28;20088;-74
2022/04/24 11:56:03;;;;;;;8.38;4.05;;;16.20;73.30;;;;;;5007861;28;20025;-73
2022/04/24 11:58:33;;;;;;;9.48;3.72;;;16.20;73.40;;;;;;5009345;28;20018;-74
2022/04/24 12:01:00;;;;;;;8.52;3.70;;;16.20;73.40;;;;;;5009584;28;20076;-73
2022/04/24 12:03:25;;;;;;;10.23;4.13;;;16.10;73.40;;;;;;5008408;28;20026;-74
2022/04/24 12:06:00;;;;;;;11.27;4.25;;;16.20;73.50;;;;;;5009426;28;20022;-73
2022/04/24 12:08:38;;;;;;;9.05;3.60;;;16.10;73.50;;;;;;5007573;28;20018;-73
2022/04/24 12:11:03;;;;;;;9.95;3.85;;;16.20;73.50;;;;;;5008063;28;20038;-74
2022/04/24 12:13:29;;;;;;;9.32;4.20;;;16.10;73.50;;;;;;5007633;28;20034;-73
2022/04/24 12:15:54;;;;;;;9.07;4.00;;;16.10;73.50;;;;;;5008725;28;20025;-73
2022/04/24 12:18:22;;;;;;;11.13;4.43;;;16.00;73.50;;;;;;5007562;28;20037;-74
2022/04/24 12:20:49;;;;;;;10.35;4.47;;;16.10;73.50;;;;;;5008762;28;20121;-75
2022/04/24 12:23:16;;;;;;;7.85;3.80;;;16.10;73.50;;;;;;5007458;28;20014;-73
2022/04/24 12:25:56;;;;;;;9.55;3.83;;;16.10;73.60;;;;;;5006933;28;20904;-71
2022/04/24 12:28:39;;;;;;;9.63;3.70;;;16.10;73.60;;;;;;5008144;28;20755;-71
2022/04/24 12:31:06;;;;;;;8.65;3.85;;;16.10;73.60;;;;;;5008513;28;20034;-74
2022/04/24 12:33:43;;;;;;;8.27;3.47;;;16.10;73.70;;;;;;5008154;28;20072;-72
2022/04/24 12:36:13;;;;;;;7.85;3.80;;;16.10;73.60;;;;;;5008187;28;20104;-73
2022/04/24 12:38:40;;;;;;;8.45;3.97;;;16.10;73.70;;;;;;5008196;28;20068;-74
2022/04/24 12:41:11;;;;;;;8.38;3.88;;;16.00;73.70;;;;;;5007156;28;20540;-72
2022/04/24 12:43:36;;;;;;;7.20;3.72;;;16.00;73.80;;;;;;5001709;28;20113;-73
2022/04/24 12:46:02;;;;;;;7.95;3.38;;;16.00;73.80;;;;;;5007441;28;20109;-72
2022/04/24 12:48:29;;;;;;;8.93;4.00;;;16.00;73.80;;;;;;5007851;28;20499;-74
2022/04/24 12:50:54;;;;;;;10.00;4.10;;;16.00;73.90;;;;;;5008121;28;20088;-73